sensor_id;sensor_type;location;lat;lon;timestamp;P1;durP1;ratioP1;P2;durP2;ratioP2
60038;SDS011;45916;52.734;6.544;2023-04-01T00:00:22;10.35;;;7.88;;
60038;SDS011;45916;52.734;6.544;2023-04-01T00:02:48;11.80;;;7.97;;
60038;SDS011;45916;52.734;6.544;2023-04-01T00:05:14;13.65;;;7.88;;
60038;SDS011;45916;52.734;6.544;2023-04-01T00:07:41;12.18;;;8.13;;
60038;SDS011;45916;52.734;6.544;2023-04-01T00:10:08;12.32;;;9.00;;
60038;SDS011;45916;52.734;6.544;2023-04-01T00:12:35;12.75;;;8.68;;
60038;SDS011;45916;52.734;6.544;2023-04-01T00:15:02;11.10;;;8.18;;
60038;SDS011;45916;52.734;6.544;2023-04-01T00:17:29;13.07;;;8.77;;
60038;SDS011;45916;52.734;6.544;2023-04-01T00:19:55;11.88;;;8.80;;
60038;SDS011;45916;52.734;6.544;2023-04-01T00:22:21;10.90;;;7.88;;
60038;SDS011;45916;52.734;6.544;2023-04-01T00:24:47;11.55;;;8.13;;
60038;SDS011;45916;52.734;6.544;2023-04-01T00:27:13;13.70;;;8.60;;
60038;SDS011;45916;52.734;6.544;2023-04-01T00:29:44;13.38;;;8.20;;
60038;SDS011;45916;52.734;6.544;2023-04-01T00:32:10;13.07;;;8.57;;
60038;SDS011;45916;52.734;6.544;2023-04-01T00:34:36;13.00;;;8.30;;
60038;SDS011;45916;52.734;6.544;2023-04-01T00:37:03;12.68;;;8.27;;
60038;SDS011;45916;52.734;6.544;2023-04-01T00:39:29;12.60;;;8.45;;
60038;SDS011;45916;52.734;6.544;2023-04-01T00:41:56;12.60;;;8.02;;
60038;SDS011;45916;52.734;6.544;2023-04-01T00:44:29;14.55;;;7.40;;
60038;SDS011;45916;52.734;6.544;2023-04-01T00:46:57;12.38;;;8.15;;
60038;SDS011;45916;52.734;6.544;2023-04-01T00:49:23;12.48;;;8.05;;
60038;SDS011;45916;52.734;6.544;2023-04-01T00:51:55;11.02;;;7.93;;
60038;SDS011;45916;52.734;6.544;2023-04-01T00:54:25;13.63;;;8.10;;
60038;SDS011;45916;52.734;6.544;2023-04-01T00:57:05;11.02;;;7.20;;
60038;SDS011;45916;52.734;6.544;2023-04-01T00:59:39;10.45;;;7.07;;
60038;SDS011;45916;52.734;6.544;2023-04-01T01:02:07;12.43;;;7.97;;
60038;SDS011;45916;52.734;6.544;2023-04-01T01:12:25;14.63;;;7.93;;
60038;SDS011;45916;52.734;6.544;2023-04-01T01:23:20;15.52;;;8.65;;
60038;SDS011;45916;52.734;6.544;2023-04-01T01:28:55;11.68;;;8.32;;
60038;SDS011;45916;52.734;6.544;2023-04-01T01:36:34;13.40;;;8.40;;
60038;SDS011;45916;52.734;6.544;2023-04-01T01:39:04;12.93;;;8.82;;
60038;SDS011;45916;52.734;6.544;2023-04-01T01:41:32;12.05;;;8.02;;
60038;SDS011;45916;52.734;6.544;2023-04-01T01:43:59;12.50;;;8.10;;
60038;SDS011;45916;52.734;6.544;2023-04-01T01:46:29;13.13;;;8.32;;
60038;SDS011;45916;52.734;6.544;2023-04-01T01:48:56;14.75;;;8.90;;
60038;SDS011;45916;52.734;6.544;2023-04-01T01:51:24;10.52;;;8.07;;
60038;SDS011;45916;52.734;6.544;2023-04-01T01:53:52;13.57;;;8.48;;
60038;SDS011;45916;52.734;6.544;2023-04-01T01:56:18;13.55;;;7.90;;
60038;SDS011;45916;52.734;6.544;2023-04-01T01:58:48;12.52;;;8.65;;
60038;SDS011;45916;52.734;6.544;2023-04-01T02:01:22;12.77;;;7.82;;
60038;SDS011;45916;52.734;6.544;2023-04-01T02:03:51;11.15;;;8.05;;
60038;SDS011;45916;52.734;6.544;2023-04-01T02:06:20;13.23;;;9.25;;
60038;SDS011;45916;52.734;6.544;2023-04-01T02:08:51;14.98;;;8.68;;
60038;SDS011;45916;52.734;6.544;2023-04-01T02:13:58;13.15;;;8.93;;
60038;SDS011;45916;52.734;6.544;2023-04-01T02:16:36;13.07;;;8.02;;
60038;SDS011;45916;52.734;6.544;2023-04-01T02:19:08;13.93;;;8.25;;
60038;SDS011;45916;52.734;6.544;2023-04-01T02:21:37;12.57;;;7.97;;
60038;SDS011;45916;52.734;6.544;2023-04-01T02:24:06;12.98;;;8.25;;
60038;SDS011;45916;52.734;6.544;2023-04-01T02:26:35;13.35;;;8.07;;
60038;SDS011;45916;52.734;6.544;2023-04-01T02:29:01;13.65;;;8.60;;
60038;SDS011;45916;52.734;6.544;2023-04-01T02:31:29;12.80;;;9.02;;
60038;SDS011;45916;52.734;6.544;2023-04-01T02:33:55;12.30;;;8.40;;
60038;SDS011;45916;52.734;6.544;2023-04-01T02:36:22;14.10;;;8.63;;
60038;SDS011;45916;52.734;6.544;2023-04-01T02:38:48;13.63;;;8.35;;
60038;SDS011;45916;52.734;6.544;2023-04-01T02:41:16;14.07;;;8.82;;
60038;SDS011;45916;52.734;6.544;2023-04-01T02:43:41;12.48;;;8.65;;
60038;SDS011;45916;52.734;6.544;2023-04-01T02:46:07;15.52;;;9.05;;
60038;SDS011;45916;52.734;6.544;2023-04-01T02:48:33;12.35;;;8.32;;
60038;SDS011;45916;52.734;6.544;2023-04-01T02:50:59;14.55;;;9.60;;
60038;SDS011;45916;52.734;6.544;2023-04-01T02:53:24;14.30;;;8.77;;
60038;SDS011;45916;52.734;6.544;2023-04-01T02:55:50;13.80;;;9.73;;
60038;SDS011;45916;52.734;6.544;2023-04-01T02:58:17;12.85;;;8.65;;
60038;SDS011;45916;52.734;6.544;2023-04-01T03:00:43;14.90;;;9.15;;
60038;SDS011;45916;52.734;6.544;2023-04-01T03:03:09;12.00;;;8.75;;
60038;SDS011;45916;52.734;6.544;2023-04-01T03:05:35;14.77;;;9.60;;
60038;SDS011;45916;52.734;6.544;2023-04-01T03:08:01;17.10;;;9.52;;
60038;SDS011;45916;52.734;6.544;2023-04-01T03:10:27;14.27;;;9.88;;
60038;SDS011;45916;52.734;6.544;2023-04-01T03:12:53;13.48;;;9.27;;
60038;SDS011;45916;52.734;6.544;2023-04-01T03:15:19;13.27;;;8.75;;
60038;SDS011;45916;52.734;6.544;2023-04-01T03:17:45;15.57;;;10.15;;
60038;SDS011;45916;52.734;6.544;2023-04-01T03:20:11;15.77;;;10.63;;
60038;SDS011;45916;52.734;6.544;2023-04-01T03:22:38;17.20;;;9.63;;
60038;SDS011;45916;52.734;6.544;2023-04-01T03:25:04;14.63;;;10.27;;
60038;SDS011;45916;52.734;6.544;2023-04-01T03:27:32;16.23;;;10.40;;
60038;SDS011;45916;52.734;6.544;2023-04-01T03:30:00;14.98;;;9.60;;
60038;SDS011;45916;52.734;6.544;2023-04-01T03:32:26;15.00;;;9.45;;
60038;SDS011;45916;52.734;6.544;2023-04-01T03:34:52;16.95;;;10.80;;
60038;SDS011;45916;52.734;6.544;2023-04-01T03:37:18;14.65;;;9.82;;
60038;SDS011;45916;52.734;6.544;2023-04-01T03:39:44;16.00;;;10.02;;
60038;SDS011;45916;52.734;6.544;2023-04-01T03:42:10;15.65;;;10.50;;
60038;SDS011;45916;52.734;6.544;2023-04-01T03:44:36;16.70;;;10.65;;
60038;SDS011;45916;52.734;6.544;2023-04-01T03:47:02;15.77;;;10.18;;
60038;SDS011;45916;52.734;6.544;2023-04-01T03:49:28;15.77;;;10.25;;
60038;SDS011;45916;52.734;6.544;2023-04-01T03:51:53;17.45;;;10.65;;
60038;SDS011;45916;52.734;6.544;2023-04-01T03:54:19;14.02;;;9.23;;
60038;SDS011;45916;52.734;6.544;2023-04-01T03:56:45;13.98;;;8.77;;
60038;SDS011;45916;52.734;6.544;2023-04-01T03:59:11;17.70;;;10.80;;
60038;SDS011;45916;52.734;6.544;2023-04-01T04:01:37;15.18;;;10.25;;
60038;SDS011;45916;52.734;6.544;2023-04-01T04:04:03;14.88;;;10.30;;
60038;SDS011;45916;52.734;6.544;2023-04-01T04:06:29;13.23;;;9.23;;
60038;SDS011;45916;52.734;6.544;2023-04-01T04:08:55;16.75;;;11.48;;
60038;SDS011;45916;52.734;6.544;2023-04-01T04:11:21;15.63;;;10.50;;
60038;SDS011;45916;52.734;6.544;2023-04-01T04:13:47;17.23;;;11.02;;
60038;SDS011;45916;52.734;6.544;2023-04-01T04:16:13;15.70;;;10.80;;
60038;SDS011;45916;52.734;6.544;2023-04-01T04:18:40;18.52;;;11.27;;
60038;SDS011;45916;52.734;6.544;2023-04-01T04:21:06;18.52;;;10.90;;
60038;SDS011;45916;52.734;6.544;2023-04-01T04:23:32;16.95;;;10.95;;
60038;SDS011;45916;52.734;6.544;2023-04-01T04:28:26;18.88;;;11.77;;
60038;SDS011;45916;52.734;6.544;2023-04-01T04:30:53;18.33;;;11.93;;
60038;SDS011;45916;52.734;6.544;2023-04-01T04:33:20;17.98;;;11.77;;
60038;SDS011;45916;52.734;6.544;2023-04-01T04:35:46;17.13;;;11.33;;
60038;SDS011;45916;52.734;6.544;2023-04-01T04:38:12;18.95;;;12.13;;
60038;SDS011;45916;52.734;6.544;2023-04-01T04:40:38;17.73;;;10.98;;
60038;SDS011;45916;52.734;6.544;2023-04-01T04:43:05;17.55;;;11.90;;
60038;SDS011;45916;52.734;6.544;2023-04-01T04:45:31;17.48;;;11.57;;
60038;SDS011;45916;52.734;6.544;2023-04-01T04:47:57;18.63;;;11.13;;
60038;SDS011;45916;52.734;6.544;2023-04-01T04:50:23;18.20;;;10.55;;
60038;SDS011;45916;52.734;6.544;2023-04-01T04:52:50;18.85;;;11.35;;
60038;SDS011;45916;52.734;6.544;2023-04-01T04:55:16;17.38;;;11.05;;
60038;SDS011;45916;52.734;6.544;2023-04-01T04:57:42;18.88;;;11.02;;
60038;SDS011;45916;52.734;6.544;2023-04-01T05:00:08;16.55;;;10.02;;
60038;SDS011;45916;52.734;6.544;2023-04-01T05:02:35;16.02;;;10.38;;
60038;SDS011;45916;52.734;6.544;2023-04-01T05:05:01;16.40;;;10.40;;
60038;SDS011;45916;52.734;6.544;2023-04-01T05:07:27;17.58;;;10.88;;
60038;SDS011;45916;52.734;6.544;2023-04-01T05:09:52;16.05;;;9.13;;
60038;SDS011;45916;52.734;6.544;2023-04-01T05:12:18;18.52;;;9.90;;
60038;SDS011;45916;52.734;6.544;2023-04-01T05:14:44;15.93;;;9.98;;
60038;SDS011;45916;52.734;6.544;2023-04-01T05:17:10;16.80;;;9.88;;
60038;SDS011;45916;52.734;6.544;2023-04-01T05:19:37;14.07;;;8.20;;
60038;SDS011;45916;52.734;6.544;2023-04-01T05:22:03;16.27;;;9.73;;
60038;SDS011;45916;52.734;6.544;2023-04-01T05:24:29;15.82;;;9.45;;
60038;SDS011;45916;52.734;6.544;2023-04-01T05:26:55;19.10;;;10.80;;
60038;SDS011;45916;52.734;6.544;2023-04-01T05:29:22;14.90;;;9.57;;
60038;SDS011;45916;52.734;6.544;2023-04-01T05:31:49;17.15;;;10.10;;
60038;SDS011;45916;52.734;6.544;2023-04-01T05:34:14;17.95;;;10.57;;
60038;SDS011;45916;52.734;6.544;2023-04-01T05:36:40;19.92;;;11.50;;
60038;SDS011;45916;52.734;6.544;2023-04-01T05:39:07;21.83;;;12.32;;
60038;SDS011;45916;52.734;6.544;2023-04-01T05:41:36;22.02;;;13.32;;
60038;SDS011;45916;52.734;6.544;2023-04-01T05:44:03;26.08;;;14.02;;
60038;SDS011;45916;52.734;6.544;2023-04-01T05:46:30;23.52;;;13.68;;
60038;SDS011;45916;52.734;6.544;2023-04-01T05:48:56;21.95;;;12.38;;
60038;SDS011;45916;52.734;6.544;2023-04-01T05:51:22;21.52;;;13.23;;
60038;SDS011;45916;52.734;6.544;2023-04-01T05:53:48;24.73;;;14.00;;
60038;SDS011;45916;52.734;6.544;2023-04-01T05:56:14;21.85;;;12.88;;
60038;SDS011;45916;52.734;6.544;2023-04-01T05:58:40;20.17;;;12.18;;
60038;SDS011;45916;52.734;6.544;2023-04-01T06:01:06;20.58;;;12.02;;
60038;SDS011;45916;52.734;6.544;2023-04-01T06:03:34;21.40;;;12.75;;
60038;SDS011;45916;52.734;6.544;2023-04-01T06:06:00;21.63;;;13.38;;
60038;SDS011;45916;52.734;6.544;2023-04-01T06:08:27;19.58;;;12.52;;
60038;SDS011;45916;52.734;6.544;2023-04-01T06:13:36;24.15;;;13.93;;
60038;SDS011;45916;52.734;6.544;2023-04-01T06:44:07;24.63;;;14.60;;
60038;SDS011;45916;52.734;6.544;2023-04-01T06:46:57;25.52;;;14.07;;
60038;SDS011;45916;52.734;6.544;2023-04-01T06:49:33;26.23;;;13.27;;
60038;SDS011;45916;52.734;6.544;2023-04-01T06:52:02;22.05;;;12.88;;
60038;SDS011;45916;52.734;6.544;2023-04-01T06:54:53;19.23;;;10.68;;
60038;SDS011;45916;52.734;6.544;2023-04-01T06:57:34;18.02;;;11.25;;
60038;SDS011;45916;52.734;6.544;2023-04-01T07:00:11;15.80;;;10.57;;
60038;SDS011;45916;52.734;6.544;2023-04-01T07:02:53;19.52;;;11.85;;
60038;SDS011;45916;52.734;6.544;2023-04-01T07:05:33;22.38;;;12.25;;
60038;SDS011;45916;52.734;6.544;2023-04-01T07:08:08;17.42;;;11.30;;
60038;SDS011;45916;52.734;6.544;2023-04-01T07:13:36;19.73;;;13.00;;
60038;SDS011;45916;52.734;6.544;2023-04-01T07:19:02;21.05;;;13.60;;
60038;SDS011;45916;52.734;6.544;2023-04-01T07:21:45;17.23;;;11.50;;
60038;SDS011;45916;52.734;6.544;2023-04-01T07:24:21;16.23;;;10.73;;
60038;SDS011;45916;52.734;6.544;2023-04-01T07:26:55;15.13;;;9.57;;
60038;SDS011;45916;52.734;6.544;2023-04-01T07:29:22;15.75;;;10.25;;
60038;SDS011;45916;52.734;6.544;2023-04-01T07:45:57;14.57;;;10.20;;
60038;SDS011;45916;52.734;6.544;2023-04-01T07:59:21;13.98;;;9.82;;
60038;SDS011;45916;52.734;6.544;2023-04-01T08:07:45;12.90;;;8.35;;
60038;SDS011;45916;52.734;6.544;2023-04-01T08:16:20;10.77;;;7.35;;
60038;SDS011;45916;52.734;6.544;2023-04-01T08:21:57;9.45;;;6.28;;
60038;SDS011;45916;52.734;6.544;2023-04-01T08:24:40;10.38;;;6.85;;
60038;SDS011;45916;52.734;6.544;2023-04-01T08:27:21;10.27;;;6.65;;
60038;SDS011;45916;52.734;6.544;2023-04-01T08:30:02;11.00;;;7.18;;
60038;SDS011;45916;52.734;6.544;2023-04-01T08:32:40;9.57;;;6.10;;
60038;SDS011;45916;52.734;6.544;2023-04-01T08:35:15;9.13;;;6.05;;
60038;SDS011;45916;52.734;6.544;2023-04-01T08:37:54;9.50;;;5.95;;
60038;SDS011;45916;52.734;6.544;2023-04-01T08:52:12;8.75;;;5.53;;
60038;SDS011;45916;52.734;6.544;2023-04-01T08:57:52;9.02;;;4.95;;
60038;SDS011;45916;52.734;6.544;2023-04-01T09:00:32;7.78;;;4.20;;
60038;SDS011;45916;52.734;6.544;2023-04-01T09:05:41;6.70;;;2.97;;
60038;SDS011;45916;52.734;6.544;2023-04-01T09:14:33;6.07;;;3.13;;
60038;SDS011;45916;52.734;6.544;2023-04-01T09:17:33;5.63;;;3.10;;
60038;SDS011;45916;52.734;6.544;2023-04-01T09:25:53;5.80;;;1.90;;
60038;SDS011;45916;52.734;6.544;2023-04-01T09:28:33;5.55;;;1.90;;
60038;SDS011;45916;52.734;6.544;2023-04-01T09:31:13;5.05;;;2.08;;
60038;SDS011;45916;52.734;6.544;2023-04-01T09:34:06;4.85;;;2.35;;
60038;SDS011;45916;52.734;6.544;2023-04-01T09:36:46;5.88;;;2.88;;
60038;SDS011;45916;52.734;6.544;2023-04-01T09:39:36;4.90;;;2.50;;
60038;SDS011;45916;52.734;6.544;2023-04-01T09:42:08;5.65;;;1.92;;
60038;SDS011;45916;52.734;6.544;2023-04-01T09:45:01;7.25;;;2.92;;
60038;SDS011;45916;52.734;6.544;2023-04-01T09:47:50;5.82;;;2.42;;
60038;SDS011;45916;52.734;6.544;2023-04-01T09:56:11;5.93;;;3.25;;
60038;SDS011;45916;52.734;6.544;2023-04-01T10:04:10;8.18;;;4.88;;
60038;SDS011;45916;52.734;6.544;2023-04-01T11:13:00;8.35;;;5.93;;
60038;SDS011;45916;52.734;6.544;2023-04-01T11:18:46;9.20;;;6.05;;
60038;SDS011;45916;52.734;6.544;2023-04-01T11:33:07;8.55;;;5.90;;
60038;SDS011;45916;52.734;6.544;2023-04-01T11:38:35;12.98;;;9.93;;
60038;SDS011;45916;52.734;6.544;2023-04-01T11:41:41;11.20;;;8.95;;
60038;SDS011;45916;52.734;6.544;2023-04-01T11:44:24;10.63;;;8.45;;
60038;SDS011;45916;52.734;6.544;2023-04-01T12:12:03;8.70;;;6.80;;
60038;SDS011;45916;52.734;6.544;2023-04-01T12:14:37;10.73;;;7.05;;
60038;SDS011;45916;52.734;6.544;2023-04-01T12:31:38;7.40;;;5.57;;
60038;SDS011;45916;52.734;6.544;2023-04-01T12:34:33;7.25;;;5.43;;
60038;SDS011;45916;52.734;6.544;2023-04-01T12:43:11;7.65;;;5.05;;
60038;SDS011;45916;52.734;6.544;2023-04-01T12:46:19;7.55;;;5.35;;
60038;SDS011;45916;52.734;6.544;2023-04-01T12:54:48;7.05;;;4.75;;
60038;SDS011;45916;52.734;6.544;2023-04-01T13:17:02;7.22;;;4.70;;
60038;SDS011;45916;52.734;6.544;2023-04-01T13:19:47;6.72;;;4.30;;
60038;SDS011;45916;52.734;6.544;2023-04-01T13:45:21;6.30;;;4.18;;
60038;SDS011;45916;52.734;6.544;2023-04-01T13:48:03;6.40;;;4.80;;
60038;SDS011;45916;52.734;6.544;2023-04-01T14:10:18;6.78;;;5.60;;
60038;SDS011;45916;52.734;6.544;2023-04-01T14:15:54;8.30;;;5.25;;
60038;SDS011;45916;52.734;6.544;2023-04-01T14:34:38;6.20;;;4.30;;
60038;SDS011;45916;52.734;6.544;2023-04-01T14:37:27;6.50;;;4.68;;
60038;SDS011;45916;52.734;6.544;2023-04-01T14:47:54;7.20;;;5.00;;
60038;SDS011;45916;52.734;6.544;2023-04-01T14:50:26;6.95;;;4.75;;
60038;SDS011;45916;52.734;6.544;2023-04-01T14:52:59;6.97;;;5.22;;
60038;SDS011;45916;52.734;6.544;2023-04-01T14:55:48;7.15;;;4.88;;
60038;SDS011;45916;52.734;6.544;2023-04-01T14:58:17;7.55;;;5.07;;
60038;SDS011;45916;52.734;6.544;2023-04-01T15:03:40;6.57;;;4.60;;
60038;SDS011;45916;52.734;6.544;2023-04-01T15:15:11;6.43;;;4.82;;
60038;SDS011;45916;52.734;6.544;2023-04-01T15:18:08;7.38;;;5.55;;
60038;SDS011;45916;52.734;6.544;2023-04-01T15:28:57;6.80;;;4.80;;
60038;SDS011;45916;52.734;6.544;2023-04-01T15:31:50;6.20;;;4.80;;
60038;SDS011;45916;52.734;6.544;2023-04-01T15:34:33;7.22;;;5.13;;
60038;SDS011;45916;52.734;6.544;2023-04-01T15:45:46;6.28;;;4.63;;
60038;SDS011;45916;52.734;6.544;2023-04-01T15:51:25;6.10;;;4.20;;
60038;SDS011;45916;52.734;6.544;2023-04-01T15:54:06;5.90;;;4.70;;
60038;SDS011;45916;52.734;6.544;2023-04-01T15:59:26;6.10;;;4.70;;
60038;SDS011;45916;52.734;6.544;2023-04-01T16:05:04;6.30;;;5.00;;
60038;SDS011;45916;52.734;6.544;2023-04-01T16:07:55;6.97;;;5.03;;
60038;SDS011;45916;52.734;6.544;2023-04-01T16:16:36;6.10;;;4.85;;
60038;SDS011;45916;52.734;6.544;2023-04-01T16:38:36;6.45;;;4.72;;
60038;SDS011;45916;52.734;6.544;2023-04-01T16:41:17;5.90;;;4.63;;
60038;SDS011;45916;52.734;6.544;2023-04-01T16:43:56;6.22;;;4.80;;
60038;SDS011;45916;52.734;6.544;2023-04-01T16:46:45;7.70;;;4.90;;
60038;SDS011;45916;52.734;6.544;2023-04-01T16:49:17;6.25;;;5.15;;
60038;SDS011;45916;52.734;6.544;2023-04-01T16:59:54;5.97;;;4.85;;
60038;SDS011;45916;52.734;6.544;2023-04-01T17:02:43;6.35;;;4.57;;
60038;SDS011;45916;52.734;6.544;2023-04-01T17:05:17;6.93;;;5.18;;
60038;SDS011;45916;52.734;6.544;2023-04-01T17:25:19;7.00;;;5.53;;
60038;SDS011;45916;52.734;6.544;2023-04-01T17:28:57;8.43;;;6.00;;
60038;SDS011;45916;52.734;6.544;2023-04-01T17:31:18;7.03;;;5.82;;
60038;SDS011;45916;52.734;6.544;2023-04-01T17:33:58;7.85;;;6.15;;
60038;SDS011;45916;52.734;6.544;2023-04-01T17:36:40;9.32;;;6.90;;
60038;SDS011;45916;52.734;6.544;2023-04-01T17:41:43;9.32;;;7.13;;
60038;SDS011;45916;52.734;6.544;2023-04-01T17:47:41;10.20;;;7.45;;
60038;SDS011;45916;52.734;6.544;2023-04-01T18:00:59;9.43;;;7.63;;
60038;SDS011;45916;52.734;6.544;2023-04-01T18:25:55;9.70;;;7.78;;
60038;SDS011;45916;52.734;6.544;2023-04-01T18:28:39;10.07;;;7.88;;
60038;SDS011;45916;52.734;6.544;2023-04-01T18:31:16;9.43;;;7.78;;
60038;SDS011;45916;52.734;6.544;2023-04-01T18:36:26;10.60;;;8.77;;
60038;SDS011;45916;52.734;6.544;2023-04-01T18:42:00;10.00;;;8.27;;
60038;SDS011;45916;52.734;6.544;2023-04-01T18:44:38;10.68;;;8.18;;
60038;SDS011;45916;52.734;6.544;2023-04-01T18:47:14;11.07;;;7.90;;
60038;SDS011;45916;52.734;6.544;2023-04-01T18:52:41;10.18;;;8.68;;
60038;SDS011;45916;52.734;6.544;2023-04-01T18:55:20;9.13;;;8.10;;
60038;SDS011;45916;52.734;6.544;2023-04-01T18:57:51;12.05;;;10.18;;
60038;SDS011;45916;52.734;6.544;2023-04-01T19:00:27;11.50;;;10.30;;
60038;SDS011;45916;52.734;6.544;2023-04-01T19:03:10;12.63;;;10.18;;
60038;SDS011;45916;52.734;6.544;2023-04-01T19:05:41;12.43;;;9.95;;
60038;SDS011;45916;52.734;6.544;2023-04-01T19:10:46;13.82;;;11.00;;
60038;SDS011;45916;52.734;6.544;2023-04-01T19:22:02;11.55;;;10.15;;
60038;SDS011;45916;52.734;6.544;2023-04-01T19:27:42;14.02;;;11.73;;
60038;SDS011;45916;52.734;6.544;2023-04-01T19:30:26;13.60;;;11.27;;
60038;SDS011;45916;52.734;6.544;2023-04-01T19:36:00;13.63;;;11.20;;
60038;SDS011;45916;52.734;6.544;2023-04-01T19:50:25;13.70;;;11.70;;
60038;SDS011;45916;52.734;6.544;2023-04-01T19:53:13;14.20;;;12.60;;
60038;SDS011;45916;52.734;6.544;2023-04-01T19:56:28;13.67;;;12.27;;
60038;SDS011;45916;52.734;6.544;2023-04-01T20:03:58;15.25;;;13.38;;
60038;SDS011;45916;52.734;6.544;2023-04-01T20:09:28;21.10;;;13.60;;
60038;SDS011;45916;52.734;6.544;2023-04-01T20:12:28;16.08;;;13.43;;
60038;SDS011;45916;52.734;6.544;2023-04-01T20:15:20;15.85;;;13.32;;
60038;SDS011;45916;52.734;6.544;2023-04-01T20:17:52;16.85;;;13.00;;
60038;SDS011;45916;52.734;6.544;2023-04-01T20:20:23;16.15;;;12.55;;
60038;SDS011;45916;52.734;6.544;2023-04-01T20:23:34;17.42;;;12.82;;
60038;SDS011;45916;52.734;6.544;2023-04-01T20:25:59;15.47;;;11.67;;
60038;SDS011;45916;52.734;6.544;2023-04-01T20:28:32;14.88;;;12.82;;
60038;SDS011;45916;52.734;6.544;2023-04-01T20:39:45;16.85;;;12.73;;
60038;SDS011;45916;52.734;6.544;2023-04-01T20:48:02;18.05;;;13.93;;
60038;SDS011;45916;52.734;6.544;2023-04-01T21:07:28;17.02;;;15.20;;
60038;SDS011;45916;52.734;6.544;2023-04-01T21:12:47;17.45;;;14.10;;
60038;SDS011;45916;52.734;6.544;2023-04-01T21:23:47;20.35;;;13.82;;
60038;SDS011;45916;52.734;6.544;2023-04-01T21:29:22;18.63;;;14.35;;
60038;SDS011;45916;52.734;6.544;2023-04-01T21:35:01;19.35;;;14.32;;
60038;SDS011;45916;52.734;6.544;2023-04-01T21:41:11;20.65;;;14.38;;
60038;SDS011;45916;52.734;6.544;2023-04-01T22:17:08;19.77;;;14.63;;
60038;SDS011;45916;52.734;6.544;2023-04-01T22:19:56;18.40;;;14.60;;
60038;SDS011;45916;52.734;6.544;2023-04-01T22:25:43;19.48;;;13.27;;
60038;SDS011;45916;52.734;6.544;2023-04-01T22:28:14;18.13;;;15.15;;
60038;SDS011;45916;52.734;6.544;2023-04-01T22:30:50;22.30;;;13.93;;
60038;SDS011;45916;52.734;6.544;2023-04-01T22:50:24;18.15;;;14.45;;
60038;SDS011;45916;52.734;6.544;2023-04-01T22:55:57;19.13;;;13.80;;
60038;SDS011;45916;52.734;6.544;2023-04-01T22:58:30;17.88;;;14.00;;
60038;SDS011;45916;52.734;6.544;2023-04-01T23:01:07;16.67;;;14.07;;
60038;SDS011;45916;52.734;6.544;2023-04-01T23:03:40;17.33;;;13.52;;
60038;SDS011;45916;52.734;6.544;2023-04-01T23:06:09;18.92;;;14.02;;
60038;SDS011;45916;52.734;6.544;2023-04-01T23:11:22;18.50;;;12.32;;
60038;SDS011;45916;52.734;6.544;2023-04-01T23:14:04;17.10;;;12.93;;
60038;SDS011;45916;52.734;6.544;2023-04-01T23:16:53;18.08;;;13.60;;
60038;SDS011;45916;52.734;6.544;2023-04-01T23:24:49;18.75;;;13.68;;
60038;SDS011;45916;52.734;6.544;2023-04-01T23:27:39;14.75;;;11.55;;
60038;SDS011;45916;52.734;6.544;2023-04-01T23:35:50;17.27;;;12.25;;
60038;SDS011;45916;52.734;6.544;2023-04-01T23:38:19;17.95;;;11.88;;
60038;SDS011;45916;52.734;6.544;2023-04-01T23:40:47;15.45;;;12.13;;
60038;SDS011;45916;52.734;6.544;2023-04-01T23:43:24;16.38;;;11.95;;
60038;SDS011;45916;52.734;6.544;2023-04-01T23:45:53;16.90;;;11.35;;
60038;SDS011;45916;52.734;6.544;2023-04-01T23:48:34;13.48;;;10.20;;
60038;SDS011;45916;52.734;6.544;2023-04-01T23:51:35;14.82;;;11.18;;
60038;SDS011;45916;52.734;6.544;2023-04-01T23:54:11;14.45;;;10.82;;
60038;SDS011;45916;52.734;6.544;2023-04-01T23:56:44;14.55;;;10.55;;
60038;SDS011;45916;52.734;6.544;2023-04-01T23:59:17;15.35;;;10.95;;
